createdAt,value
2023-04-16T00:01:56.578Z,9.06
2023-04-16T00:04:24.391Z,9.00
2023-04-16T00:06:52.011Z,8.92
2023-04-16T00:09:21.240Z,8.89
2023-04-16T00:11:48.811Z,8.86
2023-04-16T00:14:16.425Z,8.99
2023-04-16T00:16:44.229Z,8.95
2023-04-16T00:19:13.195Z,8.93
2023-04-16T00:21:40.571Z,8.88
2023-04-16T00:24:08.249Z,8.74
2023-04-16T00:26:37.185Z,8.79
2023-04-16T00:29:04.626Z,8.70
2023-04-16T00:31:32.621Z,8.65
2023-04-16T00:34:00.725Z,8.58
2023-04-16T00:36:29.040Z,8.62
2023-04-16T00:38:57.416Z,8.63
2023-04-16T00:41:25.045Z,8.58
2023-04-16T00:43:54.229Z,8.62
2023-04-16T00:46:23.464Z,8.57
2023-04-16T00:48:52.507Z,8.61
2023-04-16T00:51:21.360Z,8.54
2023-04-16T00:53:48.806Z,8.65
2023-04-16T00:56:17.698Z,8.65
2023-04-16T00:58:45.607Z,8.70
2023-04-16T01:01:15.144Z,8.74
2023-04-16T01:03:45.629Z,8.75
2023-04-16T01:06:13.800Z,8.76
2023-04-16T01:08:41.748Z,8.71
2023-04-16T01:11:10.774Z,8.71
2023-04-16T01:13:39.570Z,8.87
2023-04-16T01:16:08.056Z,8.85
2023-04-16T01:18:37.370Z,8.73
2023-04-16T01:21:06.793Z,8.74
2023-04-16T01:23:34.430Z,8.64
2023-04-16T01:26:02.146Z,8.69
2023-04-16T01:28:29.772Z,8.64
2023-04-16T01:31:00.496Z,8.69
2023-04-16T01:33:28.147Z,8.81
2023-04-16T01:35:55.813Z,8.77
2023-04-16T01:38:24.783Z,8.83
2023-04-16T01:40:56.239Z,8.84
2023-04-16T01:43:23.897Z,8.86
2023-04-16T01:45:51.506Z,8.94
2023-04-16T01:48:19.449Z,8.92
2023-04-16T01:50:47.239Z,8.98
2023-04-16T01:53:14.859Z,9.01
2023-04-16T01:55:43.824Z,8.97
2023-04-16T01:58:13.739Z,9.04
2023-04-16T02:00:41.370Z,9.01
2023-04-16T02:03:09.235Z,9.05
2023-04-16T02:05:36.893Z,9.08
2023-04-16T02:08:07.233Z,9.11
2023-04-16T02:10:34.872Z,9.06
2023-04-16T02:13:03.837Z,9.04
2023-04-16T02:15:31.322Z,9.09
2023-04-16T02:17:59.062Z,8.96
2023-04-16T02:20:26.688Z,8.94
2023-04-16T02:22:54.319Z,8.87
2023-04-16T02:25:22.234Z,8.79
2023-04-16T02:27:49.802Z,8.85
2023-04-16T02:30:18.976Z,8.84
2023-04-16T02:32:46.705Z,8.89
2023-04-16T02:35:14.429Z,8.95
2023-04-16T02:37:42.202Z,8.97
2023-04-16T02:40:11.149Z,8.96
2023-04-16T02:42:38.558Z,9.01
2023-04-16T02:45:06.706Z,9.00
2023-04-16T02:47:35.972Z,9.00
2023-04-16T02:50:03.793Z,8.91
2023-04-16T02:52:32.274Z,8.83
2023-04-16T02:55:03.959Z,8.87
2023-04-16T02:57:31.550Z,9.04
2023-04-16T02:59:59.377Z,9.08
2023-04-16T03:02:27.252Z,9.14
2023-04-16T03:04:56.369Z,9.09
2023-04-16T03:07:24.218Z,9.04
2023-04-16T03:09:51.805Z,8.97
2023-04-16T03:12:19.416Z,9.00
2023-04-16T03:14:47.058Z,9.02
2023-04-16T03:17:14.737Z,9.08
2023-04-16T03:19:42.356Z,9.08
2023-04-16T03:22:11.327Z,9.12
2023-04-16T03:24:39.139Z,9.14
2023-04-16T03:27:06.772Z,9.04
2023-04-16T03:29:34.409Z,8.97
2023-04-16T03:32:02.005Z,9.08
2023-04-16T03:34:29.596Z,9.04
2023-04-16T03:36:57.160Z,9.06
2023-04-16T03:39:26.236Z,9.14
2023-04-16T03:41:53.877Z,9.12
2023-04-16T03:44:21.691Z,9.19
2023-04-16T03:46:49.344Z,9.06
2023-04-16T03:49:17.006Z,8.97
2023-04-16T03:51:44.620Z,8.94
2023-04-16T03:54:12.269Z,9.01
2023-04-16T03:56:42.891Z,9.02
2023-04-16T03:59:10.856Z,8.92
2023-04-16T04:01:38.695Z,8.92
2023-04-16T04:04:06.811Z,8.88
2023-04-16T04:06:34.522Z,8.92
2023-04-16T04:09:02.212Z,8.94
2023-04-16T04:11:29.819Z,9.00
2023-04-16T04:13:58.805Z,9.04
2023-04-16T04:16:26.505Z,9.09
2023-04-16T04:18:55.285Z,9.10
2023-04-16T04:21:22.915Z,9.06
2023-04-16T04:23:50.556Z,9.18
2023-04-16T04:26:18.191Z,9.12
2023-04-16T04:28:47.214Z,9.02
2023-04-16T04:31:16.481Z,9.04
2023-04-16T04:33:44.146Z,9.03
2023-04-16T04:36:11.814Z,9.05
2023-04-16T04:38:39.480Z,8.94
2023-04-16T04:41:07.129Z,8.91
2023-04-16T04:43:34.798Z,8.89
2023-04-16T04:46:02.448Z,8.89
2023-04-16T04:48:31.455Z,8.84
2023-04-16T04:50:59.129Z,8.91
2023-04-16T04:53:26.756Z,8.97
2023-04-16T04:55:57.583Z,9.00
2023-04-16T04:58:32.985Z,8.95
2023-04-16T05:01:04.691Z,8.97
2023-04-16T05:03:33.838Z,8.99
2023-04-16T05:06:01.721Z,8.94
2023-04-16T05:08:29.466Z,8.96
2023-04-16T05:10:57.083Z,8.97
2023-04-16T05:13:32.503Z,9.00
2023-04-16T05:16:00.800Z,9.04
2023-04-16T05:18:28.462Z,9.13
2023-04-16T05:20:57.430Z,9.18
2023-04-16T05:23:25.015Z,9.28
2023-04-16T05:25:52.678Z,9.21
2023-04-16T05:28:20.296Z,9.12
2023-04-16T05:30:48.018Z,9.13
2023-04-16T05:33:15.676Z,9.14
2023-04-16T05:35:43.269Z,9.10
2023-04-16T05:38:13.296Z,9.16
2023-04-16T05:40:40.969Z,9.17
2023-04-16T05:43:08.565Z,9.25
2023-04-16T05:45:40.789Z,9.20
2023-04-16T05:48:09.029Z,9.13
2023-04-16T05:50:36.772Z,9.10
2023-04-16T05:53:06.926Z,9.15
2023-04-16T05:55:37.026Z,9.11
2023-04-16T05:58:05.084Z,9.23
2023-04-16T06:00:32.760Z,9.23
2023-04-16T06:03:00.509Z,9.32
2023-04-16T06:05:28.259Z,9.25
2023-04-16T06:07:56.224Z,9.27
2023-04-16T06:10:23.849Z,9.20
2023-04-16T06:13:02.172Z,9.14
2023-04-16T06:15:30.080Z,9.10
2023-04-16T06:17:59.441Z,9.06
2023-04-16T06:20:28.548Z,9.17
2023-04-16T06:22:56.617Z,9.30
2023-04-16T06:25:24.213Z,9.30
2023-04-16T06:27:53.224Z,9.35
2023-04-16T06:30:20.897Z,9.37
2023-04-16T06:32:48.599Z,9.42
2023-04-16T06:35:16.404Z,9.34
2023-04-16T06:37:44.005Z,9.45
2023-04-16T06:40:12.439Z,9.42
2023-04-16T06:42:42.324Z,9.48
2023-04-16T06:45:13.408Z,9.41
2023-04-16T06:47:41.083Z,9.34
2023-04-16T06:50:09.328Z,9.21
2023-04-16T06:52:37.026Z,9.14
2023-04-16T06:55:05.114Z,9.19
2023-04-16T06:57:32.871Z,9.16
2023-04-16T07:00:00.510Z,9.10
2023-04-16T07:02:29.702Z,9.24
2023-04-16T07:04:57.579Z,9.28
2023-04-16T07:07:25.322Z,9.19
2023-04-16T07:09:53.070Z,9.19
2023-04-16T07:12:22.623Z,9.27
2023-04-16T07:14:50.660Z,9.34
2023-04-16T07:17:18.261Z,9.30
2023-04-16T07:19:47.574Z,9.35
2023-04-16T07:22:15.796Z,9.38
2023-04-16T07:24:43.809Z,9.39
2023-04-16T07:27:11.487Z,9.42
2023-04-16T07:29:39.107Z,9.50
2023-04-16T07:32:06.887Z,9.56
2023-04-16T07:34:37.698Z,9.54
2023-04-16T07:37:40.063Z,9.58
2023-04-16T07:40:09.221Z,9.63
2023-04-16T07:42:36.877Z,9.72
2023-04-16T07:45:05.262Z,9.67
2023-04-16T07:47:32.851Z,9.69
2023-04-16T07:50:00.455Z,9.63
2023-04-16T07:52:28.023Z,9.52
2023-04-16T07:54:56.986Z,9.67
2023-04-16T07:57:24.583Z,9.63
2023-04-16T07:59:52.501Z,9.50
2023-04-16T08:02:20.444Z,9.47
2023-04-16T08:04:48.383Z,9.53
2023-04-16T08:07:16.190Z,9.49
2023-04-16T08:09:49.462Z,9.64
2023-04-16T08:12:18.602Z,9.59
2023-04-16T08:14:46.782Z,9.59
2023-04-16T08:17:14.475Z,9.61
2023-04-16T08:19:42.824Z,9.66
2023-04-16T08:22:10.415Z,9.79
2023-04-16T08:24:37.966Z,9.62
2023-04-16T08:27:17.879Z,9.61
2023-04-16T08:29:47.993Z,9.66
2023-04-16T08:32:15.867Z,9.61
2023-04-16T08:34:43.828Z,9.58
2023-04-16T08:37:11.492Z,9.55
2023-04-16T08:39:39.063Z,9.60
2023-04-16T08:42:07.268Z,9.58
2023-04-16T08:44:36.165Z,9.60
2023-04-16T08:47:05.011Z,9.74
2023-04-16T08:49:35.083Z,9.69
2023-04-16T08:52:07.205Z,9.65
2023-04-16T08:54:40.564Z,9.74
2023-04-16T08:57:11.676Z,9.61
2023-04-16T08:59:39.673Z,9.68
2023-04-16T09:02:09.947Z,9.71
2023-04-16T09:04:37.948Z,9.70
2023-04-16T09:07:06.014Z,9.71
2023-04-16T09:09:34.947Z,9.77
2023-04-16T09:12:02.677Z,9.78
2023-04-16T09:14:30.358Z,9.77
2023-04-16T09:17:03.666Z,9.89
2023-04-16T09:19:32.755Z,9.88
2023-04-16T09:22:00.423Z,9.97
2023-04-16T09:24:28.554Z,10.02
2023-04-16T09:26:56.389Z,9.96
2023-04-16T09:29:37.309Z,9.98
2023-04-16T09:32:05.762Z,10.01
2023-04-16T09:34:36.002Z,10.01
2023-04-16T09:37:16.671Z,9.96
2023-04-16T09:39:44.469Z,10.21
2023-04-16T09:42:12.437Z,10.22
2023-04-16T09:44:40.229Z,10.21
2023-04-16T09:47:08.205Z,10.32
2023-04-16T09:49:42.344Z,10.30
2023-04-16T09:52:14.490Z,10.29
2023-04-16T09:54:47.546Z,10.21
2023-04-16T09:57:15.894Z,10.19
2023-04-16T09:59:43.486Z,10.17
2023-04-16T10:02:14.522Z,10.15
2023-04-16T10:04:51.939Z,10.27
2023-04-16T10:07:20.158Z,10.33
2023-04-16T10:09:49.582Z,10.30
2023-04-16T10:12:17.407Z,10.35
2023-04-16T10:14:45.154Z,10.47
2023-04-16T10:17:12.923Z,10.53
2023-04-16T10:19:40.828Z,10.37
2023-04-16T10:22:13.739Z,10.32
2023-04-16T10:24:42.509Z,10.40
2023-04-16T10:27:10.675Z,10.33
2023-04-16T10:29:38.529Z,10.26
2023-04-16T10:32:07.649Z,10.21
2023-04-16T10:34:36.548Z,10.17
2023-04-16T10:37:15.336Z,10.22
2023-04-16T10:39:42.970Z,10.33
2023-04-16T10:42:11.772Z,10.36
2023-04-16T10:44:43.512Z,10.33
2023-04-16T10:47:13.583Z,10.29
2023-04-16T10:49:42.331Z,10.28
2023-04-16T10:52:17.635Z,10.29
2023-04-16T10:54:45.357Z,10.37
2023-04-16T10:57:17.707Z,10.36
2023-04-16T10:59:46.024Z,10.36
2023-04-16T11:02:15.182Z,10.47
2023-04-16T11:04:45.929Z,10.48
2023-04-16T11:07:19.805Z,10.42
2023-04-16T11:10:04.754Z,10.38
2023-04-16T11:12:35.848Z,10.40
2023-04-16T11:15:04.581Z,10.43
2023-04-16T11:17:34.618Z,10.46
2023-04-16T11:20:02.473Z,10.53
2023-04-16T11:22:31.910Z,10.58
2023-04-16T11:24:59.541Z,10.56
2023-04-16T11:27:27.303Z,10.57
2023-04-16T11:30:19.819Z,10.58
2023-04-16T11:32:47.501Z,10.64
2023-04-16T11:35:16.662Z,10.56
2023-04-16T11:37:46.284Z,10.55
2023-04-16T11:40:14.198Z,10.49
2023-04-16T11:42:43.453Z,10.46
2023-04-16T11:45:12.712Z,10.40
2023-04-16T11:47:44.682Z,10.48
2023-04-16T11:50:22.435Z,10.48
2023-04-16T11:52:52.472Z,10.59
2023-04-16T11:55:20.652Z,10.68
2023-04-16T11:57:48.409Z,10.62
2023-04-16T12:00:16.619Z,10.53
2023-04-16T12:02:46.081Z,10.61
2023-04-16T12:05:31.319Z,10.57
2023-04-16T12:08:01.774Z,10.62
2023-04-16T12:10:29.817Z,10.55
2023-04-16T12:13:11.417Z,10.56
2023-04-16T12:15:46.984Z,10.69
2023-04-16T12:18:14.984Z,10.62
2023-04-16T12:20:43.243Z,10.59
2023-04-16T12:23:13.664Z,10.58
2023-04-16T12:25:44.045Z,10.58
2023-04-16T12:28:12.343Z,10.50
2023-04-16T12:30:50.867Z,10.62
2023-04-16T12:33:21.092Z,10.59
2023-04-16T12:35:48.708Z,10.54
2023-04-16T12:38:17.945Z,10.55
2023-04-16T12:40:46.356Z,10.47
2023-04-16T12:43:14.360Z,10.44
2023-04-16T12:45:42.454Z,10.51
2023-04-16T12:48:10.469Z,10.54
2023-04-16T12:50:39.566Z,10.64
2023-04-16T12:53:07.321Z,10.59
2023-04-16T12:55:36.682Z,10.63
2023-04-16T12:58:04.418Z,10.68
2023-04-16T13:00:32.707Z,10.62
2023-04-16T13:03:00.405Z,10.50
2023-04-16T13:05:28.198Z,10.43
2023-04-16T13:07:57.991Z,10.55
2023-04-16T13:10:27.725Z,10.50
2023-04-16T13:12:56.874Z,10.50
2023-04-16T13:15:24.514Z,10.48
2023-04-16T13:17:52.272Z,10.44
2023-04-16T13:20:20.091Z,10.47
2023-04-16T13:22:48.501Z,10.47
2023-04-16T13:25:16.220Z,10.36
2023-04-16T13:27:48.712Z,10.37
2023-04-16T13:30:18.009Z,10.38
2023-04-16T13:32:50.321Z,10.26
2023-04-16T13:44:41.608Z,10.42
2023-04-16T13:47:18.473Z,10.07
2023-04-16T13:49:51.976Z,10.55
2023-04-16T13:52:21.472Z,10.50
2023-04-16T13:55:00.385Z,10.59
2023-04-16T13:57:45.929Z,10.64
2023-04-16T14:00:24.440Z,10.67
2023-04-16T14:02:53.739Z,10.82
2023-04-16T14:05:43.043Z,10.94
2023-04-16T14:08:14.309Z,10.68
2023-04-16T14:10:46.079Z,10.24
2023-04-16T14:13:40.121Z,10.64
2023-04-16T14:16:30.702Z,10.23
2023-04-16T14:19:17.932Z,10.59
2023-04-16T14:22:09.557Z,10.78
2023-04-16T14:24:57.174Z,10.67
2023-04-16T14:27:48.142Z,10.45
2023-04-16T14:30:30.941Z,10.78
2023-04-16T14:32:59.088Z,10.31
2023-04-16T14:36:04.588Z,10.33
2023-04-16T14:38:53.471Z,10.74
2023-04-16T14:41:45.022Z,10.80
2023-04-16T14:44:55.212Z,10.70
2023-04-16T14:47:38.478Z,10.48
2023-04-16T14:50:12.005Z,10.36
2023-04-16T14:52:44.415Z,10.19
2023-04-16T14:55:21.507Z,10.36
2023-04-16T14:57:54.182Z,10.62
2023-04-16T15:00:28.186Z,10.44
2023-04-16T15:02:57.300Z,10.53
2023-04-16T15:05:29.169Z,10.49
2023-04-16T15:08:01.198Z,10.69
2023-04-16T15:10:29.398Z,10.70
2023-04-16T15:13:04.305Z,10.84
2023-04-16T15:15:32.472Z,10.85
2023-04-16T15:18:05.021Z,10.89
2023-04-16T15:20:32.846Z,10.85
2023-04-16T15:23:02.131Z,10.80
2023-04-16T15:25:57.658Z,10.90
2023-04-16T15:28:31.115Z,10.93
2023-04-16T15:31:22.383Z,10.58
2023-04-16T15:34:14.099Z,10.67
2023-04-16T15:36:50.740Z,10.85
2023-04-16T15:39:22.225Z,10.95
2023-04-16T15:42:01.271Z,11.01
2023-04-16T15:44:31.066Z,10.90
2023-04-16T15:47:01.422Z,10.88
2023-04-16T15:49:29.123Z,10.86
2023-04-16T15:51:56.963Z,10.82
2023-04-16T15:54:28.982Z,10.77
2023-04-16T15:57:00.488Z,10.80
2023-04-16T15:59:28.240Z,10.87
2023-04-16T16:01:56.612Z,10.84
2023-04-16T16:04:26.499Z,10.89
2023-04-16T16:06:54.348Z,10.82
2023-04-16T16:09:26.230Z,11.06
2023-04-16T16:11:55.586Z,11.18
2023-04-16T16:14:25.143Z,11.18
2023-04-16T16:16:52.901Z,11.12
2023-04-16T16:19:20.573Z,11.04
2023-04-16T16:21:48.403Z,11.00
2023-04-16T16:24:16.137Z,10.94
2023-04-16T16:26:43.962Z,10.89
2023-04-16T16:29:13.085Z,10.85
2023-04-16T16:31:46.936Z,10.81
2023-04-16T16:34:20.463Z,10.82
2023-04-16T16:36:48.863Z,10.78
2023-04-16T16:39:16.723Z,10.86
2023-04-16T16:41:45.573Z,10.88
2023-04-16T16:44:14.357Z,10.88
2023-04-16T16:46:42.098Z,10.94
2023-04-16T16:49:15.590Z,10.91
2023-04-16T16:51:43.451Z,10.89
2023-04-16T16:54:11.115Z,10.91
2023-04-16T16:56:46.349Z,10.88
2023-04-16T16:59:31.268Z,10.91
2023-04-16T17:02:00.514Z,11.00
2023-04-16T17:04:28.226Z,10.96
2023-04-16T17:06:55.964Z,10.91
2023-04-16T17:09:23.589Z,10.85
2023-04-16T17:11:51.308Z,10.82
2023-04-16T17:14:34.838Z,10.75
2023-04-16T17:17:27.894Z,10.77
2023-04-16T17:20:15.172Z,10.77
2023-04-16T17:22:57.096Z,10.60
2023-04-16T17:25:45.117Z,10.85
2023-04-16T17:28:22.888Z,10.62
2023-04-16T17:30:56.162Z,10.69
2023-04-16T17:33:25.298Z,10.79
2023-04-16T17:35:53.983Z,10.62
2023-04-16T17:38:23.783Z,10.76
2023-04-16T17:40:58.058Z,10.69
2023-04-16T17:43:34.064Z,10.77
2023-04-16T17:46:02.757Z,10.87
2023-04-16T17:48:31.975Z,10.70
2023-04-16T17:50:59.546Z,10.79
2023-04-16T17:53:27.190Z,10.76
2023-04-16T17:55:56.957Z,10.76
2023-04-16T17:58:26.291Z,10.67
2023-04-16T18:00:56.655Z,10.69
2023-04-16T18:03:24.477Z,10.63
2023-04-16T18:05:56.550Z,10.64
2023-04-16T18:08:24.875Z,10.68
2023-04-16T18:10:54.790Z,10.69
2023-04-16T18:13:22.441Z,10.64
2023-04-16T18:15:50.247Z,10.64
2023-04-16T18:18:18.529Z,10.55
2023-04-16T18:20:48.056Z,10.51
2023-04-16T18:23:17.074Z,10.51
2023-04-16T18:25:44.758Z,10.51
2023-04-16T18:28:14.000Z,10.62
2023-04-16T18:30:42.702Z,10.59
2023-04-16T18:33:37.444Z,10.66
2023-04-16T18:36:02.475Z,10.58
2023-04-16T18:38:31.579Z,10.55
2023-04-16T18:40:59.210Z,10.58
2023-04-16T18:43:26.987Z,10.67
2023-04-16T18:45:54.638Z,10.62
2023-04-16T18:48:22.717Z,10.63
2023-04-16T18:50:50.398Z,10.61
2023-04-16T18:53:17.983Z,10.57
2023-04-16T18:55:47.476Z,10.61
2023-04-16T18:58:15.101Z,10.45
2023-04-16T19:00:43.072Z,10.46
2023-04-16T19:03:10.791Z,10.57
2023-04-16T19:05:38.831Z,10.46
2023-04-16T19:08:07.435Z,10.54
2023-04-16T19:10:44.185Z,10.53
2023-04-16T19:13:13.537Z,10.49
2023-04-16T19:15:41.201Z,10.49
2023-04-16T19:18:11.910Z,10.47
2023-04-16T19:20:39.613Z,10.46
2023-04-16T19:23:09.024Z,10.44
2023-04-16T19:25:37.353Z,10.45
2023-04-16T19:28:05.201Z,10.45
2023-04-16T19:30:34.130Z,10.41
2023-04-16T19:33:01.824Z,10.35
2023-04-16T19:35:30.091Z,10.39
2023-04-16T19:37:58.517Z,10.38
2023-04-16T19:40:26.209Z,10.39
2023-04-16T19:42:53.766Z,10.36
2023-04-16T19:45:25.664Z,10.36
2023-04-16T19:47:54.891Z,10.38
2023-04-16T19:50:23.658Z,10.33
2023-04-16T19:52:51.536Z,10.33
2023-04-16T19:55:19.662Z,10.28
2023-04-16T19:57:48.795Z,10.23
2023-04-16T20:00:23.254Z,10.25
2023-04-16T20:02:50.948Z,10.26
2023-04-16T20:05:19.939Z,10.22
2023-04-16T20:07:47.563Z,10.24
2023-04-16T20:10:15.268Z,10.28
2023-04-16T20:12:42.917Z,10.27
2023-04-16T20:15:11.081Z,10.29
2023-04-16T20:17:38.715Z,10.29
2023-04-16T20:20:10.189Z,10.22
2023-04-16T20:22:39.284Z,10.22
2023-04-16T20:25:08.890Z,10.11
2023-04-16T20:27:36.531Z,10.12
2023-04-16T20:30:05.929Z,10.17
2023-04-16T20:32:33.717Z,10.11
2023-04-16T20:35:02.055Z,10.16
2023-04-16T20:37:29.921Z,10.15
2023-04-16T20:39:58.886Z,10.08
2023-04-16T20:42:27.618Z,10.09
2023-04-16T20:44:56.836Z,10.06
2023-04-16T20:47:24.535Z,10.26
2023-04-16T20:49:52.540Z,10.34
2023-04-16T20:52:20.198Z,10.47
2023-04-16T20:54:48.187Z,10.41
2023-04-16T20:57:17.096Z,10.40
2023-04-16T20:59:54.789Z,10.29
2023-04-16T21:02:23.626Z,10.27
2023-04-16T21:04:51.438Z,10.27
2023-04-16T21:07:19.096Z,10.23
2023-04-16T21:09:46.706Z,10.32
2023-04-16T21:12:14.300Z,10.33
2023-04-16T21:14:43.484Z,10.30
2023-04-16T21:17:11.050Z,10.33
2023-04-16T21:19:40.065Z,10.26
2023-04-16T21:22:07.825Z,10.24
2023-04-16T21:24:35.493Z,10.23
2023-04-16T21:27:03.264Z,10.23
2023-04-16T21:29:30.946Z,10.18
2023-04-16T21:31:59.969Z,10.16
2023-04-16T21:34:27.660Z,10.15
2023-04-16T21:36:55.235Z,10.09
2023-04-16T21:39:24.465Z,10.12
2023-04-16T21:41:52.042Z,10.09
2023-04-16T21:44:27.782Z,10.17
2023-04-16T21:46:55.388Z,10.17
2023-04-16T21:49:24.602Z,10.13
2023-04-16T21:51:58.902Z,10.12
2023-04-16T21:54:26.548Z,10.08
2023-04-16T21:56:54.183Z,10.07
2023-04-16T21:59:21.952Z,10.03
2023-04-16T22:01:49.595Z,10.10
2023-04-16T22:04:17.783Z,10.11
2023-04-16T22:06:46.872Z,10.07
2023-04-16T22:09:15.455Z,10.04
2023-04-16T22:11:46.414Z,9.93
2023-04-16T22:14:14.539Z,10.03
2023-04-16T22:16:42.216Z,10.01
2023-04-16T22:19:10.070Z,9.98
2023-04-16T22:21:37.828Z,9.93
2023-04-16T22:24:07.677Z,10.02
2023-04-16T22:26:35.337Z,9.94
2023-04-16T22:29:03.054Z,9.92
2023-04-16T22:31:30.904Z,9.92
2023-04-16T22:33:58.501Z,9.91
2023-04-16T22:36:26.388Z,9.91
2023-04-16T22:38:54.068Z,9.95
2023-04-16T22:41:23.763Z,9.99
2023-04-16T22:43:52.456Z,9.98
2023-04-16T22:46:21.041Z,10.08
2023-04-16T22:48:48.748Z,10.02
2023-04-16T22:51:16.432Z,10.00
2023-04-16T22:53:44.036Z,9.96
2023-04-16T22:56:11.750Z,9.90
2023-04-16T22:58:40.818Z,9.89
2023-04-16T23:01:08.585Z,9.86
2023-04-16T23:03:36.464Z,9.90
2023-04-16T23:06:04.381Z,9.84
2023-04-16T23:08:32.046Z,9.82
2023-04-16T23:10:59.739Z,9.84
2023-04-16T23:13:27.376Z,9.86
2023-04-16T23:15:56.460Z,9.88
2023-04-16T23:18:24.391Z,9.81
2023-04-16T23:20:52.643Z,9.84
2023-04-16T23:23:20.353Z,9.84
2023-04-16T23:25:48.061Z,9.82
2023-04-16T23:28:15.701Z,9.79
2023-04-16T23:30:43.313Z,9.75
2023-04-16T23:33:12.363Z,9.74
2023-04-16T23:35:40.057Z,9.72
2023-04-16T23:38:07.743Z,9.76
2023-04-16T23:40:35.427Z,9.75
2023-04-16T23:43:03.049Z,9.71
2023-04-16T23:45:30.685Z,9.75
2023-04-16T23:47:58.349Z,9.75
2023-04-16T23:50:27.471Z,9.78
2023-04-16T23:52:55.234Z,9.75
2023-04-16T23:55:22.966Z,9.71
2023-04-16T23:57:50.605Z,9.70
